sensor_id;sensor_type;location;lat;lon;timestamp;P1;durP1;ratioP1;P2;durP2;ratioP2
44120;SDS011;29783;52.504;13.478;2023-04-25T00:01:10;2.40;;;1.58;;
44120;SDS011;29783;52.504;13.478;2023-04-25T00:03:38;4.90;;;1.65;;
44120;SDS011;29783;52.504;13.478;2023-04-25T00:06:04;4.90;;;1.67;;
44120;SDS011;29783;52.504;13.478;2023-04-25T00:08:30;4.38;;;1.80;;
44120;SDS011;29783;52.504;13.478;2023-04-25T00:10:56;4.07;;;2.00;;
44120;SDS011;29783;52.504;13.478;2023-04-25T00:13:22;5.28;;;1.60;;
44120;SDS011;29783;52.504;13.478;2023-04-25T00:15:48;3.40;;;1.60;;
44120;SDS011;29783;52.504;13.478;2023-04-25T00:18:14;3.13;;;1.80;;
44120;SDS011;29783;52.504;13.478;2023-04-25T00:20:40;3.28;;;1.30;;
44120;SDS011;29783;52.504;13.478;2023-04-25T00:23:12;4.05;;;1.45;;
44120;SDS011;29783;52.504;13.478;2023-04-25T00:25:43;4.32;;;1.30;;
44120;SDS011;29783;52.504;13.478;2023-04-25T00:28:09;9.85;;;1.70;;
44120;SDS011;29783;52.504;13.478;2023-04-25T00:30:35;4.13;;;1.45;;
44120;SDS011;29783;52.504;13.478;2023-04-25T00:33:01;3.45;;;1.52;;
44120;SDS011;29783;52.504;13.478;2023-04-25T00:35:27;7.68;;;2.20;;
44120;SDS011;29783;52.504;13.478;2023-04-25T00:37:53;4.70;;;1.30;;
44120;SDS011;29783;52.504;13.478;2023-04-25T00:40:19;8.07;;;1.95;;
44120;SDS011;29783;52.504;13.478;2023-04-25T00:42:46;3.80;;;1.48;;
44120;SDS011;29783;52.504;13.478;2023-04-25T00:45:13;7.25;;;1.70;;
44120;SDS011;29783;52.504;13.478;2023-04-25T00:47:42;4.50;;;1.92;;
44120;SDS011;29783;52.504;13.478;2023-04-25T00:50:08;3.40;;;1.85;;
44120;SDS011;29783;52.504;13.478;2023-04-25T00:52:35;5.25;;;1.60;;
44120;SDS011;29783;52.504;13.478;2023-04-25T00:55:02;6.43;;;1.63;;
44120;SDS011;29783;52.504;13.478;2023-04-25T00:57:28;7.55;;;1.80;;
44120;SDS011;29783;52.504;13.478;2023-04-25T00:59:54;6.25;;;1.60;;
44120;SDS011;29783;52.504;13.478;2023-04-25T01:02:21;5.47;;;1.92;;
44120;SDS011;29783;52.504;13.478;2023-04-25T01:04:47;4.05;;;1.75;;
44120;SDS011;29783;52.504;13.478;2023-04-25T01:07:13;8.20;;;1.88;;
44120;SDS011;29783;52.504;13.478;2023-04-25T01:09:39;6.70;;;2.22;;
44120;SDS011;29783;52.504;13.478;2023-04-25T01:12:05;6.38;;;1.85;;
44120;SDS011;29783;52.504;13.478;2023-04-25T01:14:31;4.40;;;1.92;;
44120;SDS011;29783;52.504;13.478;2023-04-25T01:16:56;4.53;;;1.35;;
44120;SDS011;29783;52.504;13.478;2023-04-25T01:19:23;4.13;;;1.48;;
44120;SDS011;29783;52.504;13.478;2023-04-25T01:21:49;6.20;;;2.13;;
44120;SDS011;29783;52.504;13.478;2023-04-25T01:24:15;5.35;;;1.58;;
44120;SDS011;29783;52.504;13.478;2023-04-25T01:26:42;2.92;;;1.52;;
44120;SDS011;29783;52.504;13.478;2023-04-25T01:29:15;10.27;;;1.75;;
44120;SDS011;29783;52.504;13.478;2023-04-25T01:31:45;6.93;;;2.05;;
44120;SDS011;29783;52.504;13.478;2023-04-25T01:34:11;5.53;;;2.00;;
44120;SDS011;29783;52.504;13.478;2023-04-25T01:36:37;7.15;;;1.88;;
44120;SDS011;29783;52.504;13.478;2023-04-25T01:39:03;4.93;;;1.95;;
44120;SDS011;29783;52.504;13.478;2023-04-25T01:41:29;4.95;;;2.03;;
44120;SDS011;29783;52.504;13.478;2023-04-25T01:43:55;6.68;;;2.25;;
44120;SDS011;29783;52.504;13.478;2023-04-25T01:46:21;4.47;;;1.70;;
44120;SDS011;29783;52.504;13.478;2023-04-25T01:48:47;8.75;;;2.30;;
44120;SDS011;29783;52.504;13.478;2023-04-25T01:51:12;12.00;;;2.55;;
44120;SDS011;29783;52.504;13.478;2023-04-25T01:53:38;6.55;;;1.50;;
44120;SDS011;29783;52.504;13.478;2023-04-25T01:56:04;6.70;;;2.20;;
44120;SDS011;29783;52.504;13.478;2023-04-25T01:58:30;10.35;;;2.17;;
44120;SDS011;29783;52.504;13.478;2023-04-25T02:00:56;4.85;;;1.55;;
44120;SDS011;29783;52.504;13.478;2023-04-25T02:03:22;6.50;;;2.00;;
44120;SDS011;29783;52.504;13.478;2023-04-25T02:05:47;9.50;;;2.20;;
44120;SDS011;29783;52.504;13.478;2023-04-25T02:08:13;4.50;;;1.92;;
44120;SDS011;29783;52.504;13.478;2023-04-25T02:10:40;4.82;;;1.95;;
44120;SDS011;29783;52.504;13.478;2023-04-25T02:13:05;6.72;;;1.98;;
44120;SDS011;29783;52.504;13.478;2023-04-25T02:15:31;7.68;;;2.50;;
44120;SDS011;29783;52.504;13.478;2023-04-25T02:17:57;3.72;;;2.22;;
44120;SDS011;29783;52.504;13.478;2023-04-25T02:20:23;7.10;;;2.45;;
44120;SDS011;29783;52.504;13.478;2023-04-25T02:22:49;8.02;;;2.40;;
44120;SDS011;29783;52.504;13.478;2023-04-25T02:25:15;9.57;;;2.78;;
44120;SDS011;29783;52.504;13.478;2023-04-25T02:27:42;5.55;;;1.88;;
44120;SDS011;29783;52.504;13.478;2023-04-25T02:30:08;5.43;;;1.75;;
44120;SDS011;29783;52.504;13.478;2023-04-25T02:32:34;8.20;;;2.47;;
44120;SDS011;29783;52.504;13.478;2023-04-25T02:35:00;7.20;;;2.35;;
44120;SDS011;29783;52.504;13.478;2023-04-25T02:37:29;8.52;;;2.17;;
44120;SDS011;29783;52.504;13.478;2023-04-25T02:39:55;12.25;;;2.00;;
44120;SDS011;29783;52.504;13.478;2023-04-25T02:42:21;6.22;;;2.78;;
44120;SDS011;29783;52.504;13.478;2023-04-25T02:44:47;4.57;;;1.45;;
44120;SDS011;29783;52.504;13.478;2023-04-25T02:47:12;6.50;;;2.63;;
44120;SDS011;29783;52.504;13.478;2023-04-25T02:49:38;5.85;;;2.30;;
44120;SDS011;29783;52.504;13.478;2023-04-25T02:52:04;6.78;;;2.65;;
44120;SDS011;29783;52.504;13.478;2023-04-25T02:54:29;11.48;;;3.30;;
44120;SDS011;29783;52.504;13.478;2023-04-25T02:56:55;10.27;;;2.35;;
44120;SDS011;29783;52.504;13.478;2023-04-25T02:59:21;8.80;;;2.80;;
44120;SDS011;29783;52.504;13.478;2023-04-25T03:01:47;7.25;;;2.13;;
44120;SDS011;29783;52.504;13.478;2023-04-25T03:04:12;4.50;;;1.63;;
44120;SDS011;29783;52.504;13.478;2023-04-25T03:06:38;10.90;;;3.38;;
44120;SDS011;29783;52.504;13.478;2023-04-25T03:09:03;9.00;;;3.65;;
44120;SDS011;29783;52.504;13.478;2023-04-25T03:11:29;8.68;;;2.97;;
44120;SDS011;29783;52.504;13.478;2023-04-25T03:13:55;9.30;;;3.10;;
44120;SDS011;29783;52.504;13.478;2023-04-25T03:16:21;12.93;;;3.30;;
44120;SDS011;29783;52.504;13.478;2023-04-25T03:18:46;10.57;;;3.17;;
44120;SDS011;29783;52.504;13.478;2023-04-25T03:21:12;5.15;;;1.90;;
44120;SDS011;29783;52.504;13.478;2023-04-25T03:23:38;4.85;;;2.33;;
44120;SDS011;29783;52.504;13.478;2023-04-25T03:26:03;6.05;;;3.13;;
44120;SDS011;29783;52.504;13.478;2023-04-25T03:28:29;12.50;;;2.78;;
44120;SDS011;29783;52.504;13.478;2023-04-25T03:30:54;6.85;;;2.15;;
44120;SDS011;29783;52.504;13.478;2023-04-25T03:33:20;13.65;;;3.40;;
44120;SDS011;29783;52.504;13.478;2023-04-25T03:35:46;12.70;;;3.60;;
44120;SDS011;29783;52.504;13.478;2023-04-25T03:38:12;9.70;;;3.17;;
44120;SDS011;29783;52.504;13.478;2023-04-25T03:40:37;5.43;;;2.63;;
44120;SDS011;29783;52.504;13.478;2023-04-25T03:43:03;7.90;;;3.17;;
44120;SDS011;29783;52.504;13.478;2023-04-25T03:47:58;11.85;;;3.63;;
44120;SDS011;29783;52.504;13.478;2023-04-25T03:50:24;7.10;;;3.33;;
44120;SDS011;29783;52.504;13.478;2023-04-25T03:52:49;8.68;;;2.35;;
44120;SDS011;29783;52.504;13.478;2023-04-25T03:55:15;11.63;;;3.33;;
44120;SDS011;29783;52.504;13.478;2023-04-25T03:57:41;7.15;;;3.03;;
44120;SDS011;29783;52.504;13.478;2023-04-25T04:00:06;7.07;;;3.28;;
44120;SDS011;29783;52.504;13.478;2023-04-25T04:02:33;11.35;;;3.38;;
44120;SDS011;29783;52.504;13.478;2023-04-25T04:04:59;6.63;;;2.67;;
44120;SDS011;29783;52.504;13.478;2023-04-25T04:07:25;10.23;;;2.55;;
44120;SDS011;29783;52.504;13.478;2023-04-25T04:09:51;10.10;;;3.38;;
44120;SDS011;29783;52.504;13.478;2023-04-25T04:12:17;7.90;;;2.88;;
44120;SDS011;29783;52.504;13.478;2023-04-25T04:14:42;9.50;;;2.63;;
44120;SDS011;29783;52.504;13.478;2023-04-25T04:17:08;6.47;;;3.10;;
44120;SDS011;29783;52.504;13.478;2023-04-25T04:19:34;9.23;;;3.63;;
44120;SDS011;29783;52.504;13.478;2023-04-25T04:22:00;9.73;;;2.88;;
44120;SDS011;29783;52.504;13.478;2023-04-25T04:24:25;8.30;;;3.35;;
44120;SDS011;29783;52.504;13.478;2023-04-25T04:26:51;9.98;;;3.30;;
44120;SDS011;29783;52.504;13.478;2023-04-25T04:29:17;6.95;;;2.63;;
44120;SDS011;29783;52.504;13.478;2023-04-25T04:31:49;10.77;;;2.83;;
44120;SDS011;29783;52.504;13.478;2023-04-25T04:34:15;8.00;;;2.85;;
44120;SDS011;29783;52.504;13.478;2023-04-25T04:36:43;7.63;;;3.25;;
44120;SDS011;29783;52.504;13.478;2023-04-25T04:39:12;7.97;;;2.40;;
44120;SDS011;29783;52.504;13.478;2023-04-25T04:41:38;6.60;;;2.53;;
44120;SDS011;29783;52.504;13.478;2023-04-25T04:44:04;7.97;;;2.83;;
44120;SDS011;29783;52.504;13.478;2023-04-25T04:46:31;9.63;;;3.10;;
44120;SDS011;29783;52.504;13.478;2023-04-25T04:49:02;11.25;;;3.13;;
44120;SDS011;29783;52.504;13.478;2023-04-25T04:51:31;6.25;;;2.42;;
44120;SDS011;29783;52.504;13.478;2023-04-25T04:53:56;19.58;;;3.78;;
44120;SDS011;29783;52.504;13.478;2023-04-25T04:56:27;10.90;;;3.05;;
44120;SDS011;29783;52.504;13.478;2023-04-25T04:58:56;7.00;;;2.80;;
44120;SDS011;29783;52.504;13.478;2023-04-25T05:01:22;6.68;;;2.95;;
44120;SDS011;29783;52.504;13.478;2023-04-25T05:03:48;11.07;;;3.20;;
44120;SDS011;29783;52.504;13.478;2023-04-25T05:06:14;10.18;;;2.80;;
44120;SDS011;29783;52.504;13.478;2023-04-25T05:08:41;15.32;;;2.72;;
44120;SDS011;29783;52.504;13.478;2023-04-25T05:11:06;14.35;;;3.30;;
44120;SDS011;29783;52.504;13.478;2023-04-25T05:13:32;9.50;;;3.13;;
44120;SDS011;29783;52.504;13.478;2023-04-25T05:15:58;10.63;;;3.55;;
44120;SDS011;29783;52.504;13.478;2023-04-25T05:18:23;3.03;;;1.42;;
44120;SDS011;29783;52.504;13.478;2023-04-25T05:20:49;7.28;;;2.58;;
44120;SDS011;29783;52.504;13.478;2023-04-25T05:23:14;7.28;;;2.95;;
44120;SDS011;29783;52.504;13.478;2023-04-25T05:25:41;10.43;;;3.10;;
44120;SDS011;29783;52.504;13.478;2023-04-25T05:28:07;19.05;;;3.47;;
44120;SDS011;29783;52.504;13.478;2023-04-25T05:30:33;9.20;;;3.13;;
44120;SDS011;29783;52.504;13.478;2023-04-25T05:32:59;10.68;;;2.60;;
44120;SDS011;29783;52.504;13.478;2023-04-25T05:35:26;8.52;;;2.55;;
44120;SDS011;29783;52.504;13.478;2023-04-25T05:37:52;9.13;;;3.22;;
44120;SDS011;29783;52.504;13.478;2023-04-25T05:40:18;6.80;;;2.40;;
44120;SDS011;29783;52.504;13.478;2023-04-25T05:42:43;11.60;;;3.08;;
44120;SDS011;29783;52.504;13.478;2023-04-25T05:45:09;6.88;;;3.05;;
44120;SDS011;29783;52.504;13.478;2023-04-25T05:47:35;11.55;;;3.40;;
44120;SDS011;29783;52.504;13.478;2023-04-25T05:50:00;8.93;;;3.30;;
44120;SDS011;29783;52.504;13.478;2023-04-25T05:52:27;9.98;;;2.72;;
44120;SDS011;29783;52.504;13.478;2023-04-25T05:54:52;9.00;;;3.13;;
44120;SDS011;29783;52.504;13.478;2023-04-25T05:57:24;8.10;;;3.10;;
44120;SDS011;29783;52.504;13.478;2023-04-25T05:59:51;11.55;;;3.40;;
44120;SDS011;29783;52.504;13.478;2023-04-25T06:02:17;7.85;;;2.80;;
44120;SDS011;29783;52.504;13.478;2023-04-25T06:04:43;6.78;;;2.45;;
44120;SDS011;29783;52.504;13.478;2023-04-25T06:07:09;11.45;;;2.80;;
44120;SDS011;29783;52.504;13.478;2023-04-25T06:09:35;7.80;;;3.38;;
44120;SDS011;29783;52.504;13.478;2023-04-25T06:12:00;11.93;;;4.18;;
44120;SDS011;29783;52.504;13.478;2023-04-25T06:14:26;4.13;;;2.15;;
44120;SDS011;29783;52.504;13.478;2023-04-25T06:16:52;11.63;;;3.70;;
44120;SDS011;29783;52.504;13.478;2023-04-25T06:19:18;7.65;;;3.63;;
44120;SDS011;29783;52.504;13.478;2023-04-25T06:21:44;7.07;;;3.33;;
44120;SDS011;29783;52.504;13.478;2023-04-25T06:24:10;8.05;;;3.65;;
44120;SDS011;29783;52.504;13.478;2023-04-25T06:26:35;11.00;;;3.58;;
44120;SDS011;29783;52.504;13.478;2023-04-25T06:29:01;10.25;;;3.80;;
44120;SDS011;29783;52.504;13.478;2023-04-25T06:31:27;9.43;;;3.70;;
44120;SDS011;29783;52.504;13.478;2023-04-25T06:33:54;15.48;;;3.83;;
44120;SDS011;29783;52.504;13.478;2023-04-25T06:36:20;10.23;;;3.22;;
44120;SDS011;29783;52.504;13.478;2023-04-25T06:38:50;10.68;;;3.60;;
44120;SDS011;29783;52.504;13.478;2023-04-25T06:41:17;10.85;;;3.40;;
44120;SDS011;29783;52.504;13.478;2023-04-25T06:43:42;9.45;;;3.63;;
44120;SDS011;29783;52.504;13.478;2023-04-25T06:46:08;8.80;;;3.55;;
44120;SDS011;29783;52.504;13.478;2023-04-25T06:48:34;10.43;;;3.58;;
44120;SDS011;29783;52.504;13.478;2023-04-25T06:51:00;15.73;;;3.50;;
44120;SDS011;29783;52.504;13.478;2023-04-25T06:53:25;11.50;;;2.92;;
44120;SDS011;29783;52.504;13.478;2023-04-25T06:55:51;11.80;;;3.63;;
44120;SDS011;29783;52.504;13.478;2023-04-25T06:58:17;17.35;;;3.92;;
44120;SDS011;29783;52.504;13.478;2023-04-25T07:00:43;18.00;;;3.72;;
44120;SDS011;29783;52.504;13.478;2023-04-25T07:03:08;12.02;;;3.67;;
44120;SDS011;29783;52.504;13.478;2023-04-25T07:05:34;5.60;;;2.53;;
44120;SDS011;29783;52.504;13.478;2023-04-25T07:08:00;6.47;;;3.20;;
44120;SDS011;29783;52.504;13.478;2023-04-25T07:10:26;8.80;;;3.47;;
44120;SDS011;29783;52.504;13.478;2023-04-25T07:12:52;9.18;;;3.30;;
44120;SDS011;29783;52.504;13.478;2023-04-25T07:15:18;8.75;;;3.00;;
44120;SDS011;29783;52.504;13.478;2023-04-25T07:17:43;7.90;;;3.25;;
44120;SDS011;29783;52.504;13.478;2023-04-25T07:20:09;5.95;;;2.28;;
44120;SDS011;29783;52.504;13.478;2023-04-25T07:22:35;10.45;;;3.08;;
44120;SDS011;29783;52.504;13.478;2023-04-25T07:25:01;8.32;;;3.35;;
44120;SDS011;29783;52.504;13.478;2023-04-25T07:27:27;14.48;;;3.03;;
44120;SDS011;29783;52.504;13.478;2023-04-25T07:29:52;13.95;;;2.30;;
44120;SDS011;29783;52.504;13.478;2023-04-25T07:32:18;10.30;;;2.92;;
44120;SDS011;29783;52.504;13.478;2023-04-25T07:34:44;8.40;;;2.97;;
44120;SDS011;29783;52.504;13.478;2023-04-25T07:37:10;13.18;;;3.22;;
44120;SDS011;29783;52.504;13.478;2023-04-25T07:39:36;5.82;;;2.20;;
44120;SDS011;29783;52.504;13.478;2023-04-25T07:42:02;19.35;;;3.78;;
44120;SDS011;29783;52.504;13.478;2023-04-25T07:44:28;9.13;;;2.90;;
44120;SDS011;29783;52.504;13.478;2023-04-25T07:46:55;16.98;;;3.25;;
44120;SDS011;29783;52.504;13.478;2023-04-25T07:49:21;18.25;;;3.75;;
44120;SDS011;29783;52.504;13.478;2023-04-25T07:51:46;20.40;;;4.20;;
44120;SDS011;29783;52.504;13.478;2023-04-25T07:54:13;19.02;;;3.60;;
44120;SDS011;29783;52.504;13.478;2023-04-25T07:56:39;13.10;;;3.20;;
44120;SDS011;29783;52.504;13.478;2023-04-25T07:59:05;15.25;;;3.60;;
44120;SDS011;29783;52.504;13.478;2023-04-25T08:01:30;15.27;;;3.35;;
44120;SDS011;29783;52.504;13.478;2023-04-25T08:03:56;10.00;;;3.40;;
44120;SDS011;29783;52.504;13.478;2023-04-25T08:06:22;16.10;;;3.47;;
44120;SDS011;29783;52.504;13.478;2023-04-25T08:08:47;20.00;;;3.08;;
44120;SDS011;29783;52.504;13.478;2023-04-25T08:11:13;25.70;;;4.40;;
44120;SDS011;29783;52.504;13.478;2023-04-25T08:13:39;18.65;;;4.03;;
44120;SDS011;29783;52.504;13.478;2023-04-25T08:16:04;19.15;;;3.67;;
44120;SDS011;29783;52.504;13.478;2023-04-25T08:18:30;22.55;;;4.13;;
44120;SDS011;29783;52.504;13.478;2023-04-25T08:20:55;19.15;;;3.33;;
44120;SDS011;29783;52.504;13.478;2023-04-25T08:23:21;14.07;;;3.70;;
44120;SDS011;29783;52.504;13.478;2023-04-25T08:25:47;23.38;;;4.30;;
44120;SDS011;29783;52.504;13.478;2023-04-25T08:28:13;25.90;;;3.70;;
44120;SDS011;29783;52.504;13.478;2023-04-25T08:30:40;22.08;;;3.92;;
44120;SDS011;29783;52.504;13.478;2023-04-25T08:33:05;16.92;;;3.85;;
44120;SDS011;29783;52.504;13.478;2023-04-25T08:35:31;23.00;;;4.18;;
44120;SDS011;29783;52.504;13.478;2023-04-25T08:37:58;23.65;;;4.40;;
44120;SDS011;29783;52.504;13.478;2023-04-25T08:40:23;23.33;;;4.25;;
44120;SDS011;29783;52.504;13.478;2023-04-25T08:42:55;17.13;;;3.70;;
44120;SDS011;29783;52.504;13.478;2023-04-25T08:45:22;23.30;;;4.22;;
44120;SDS011;29783;52.504;13.478;2023-04-25T08:47:48;21.23;;;3.97;;
44120;SDS011;29783;52.504;13.478;2023-04-25T08:50:17;21.30;;;4.05;;
44120;SDS011;29783;52.504;13.478;2023-04-25T08:52:46;19.20;;;3.47;;
44120;SDS011;29783;52.504;13.478;2023-04-25T08:55:14;21.63;;;4.47;;
44120;SDS011;29783;52.504;13.478;2023-04-25T08:57:41;27.88;;;4.40;;
44120;SDS011;29783;52.504;13.478;2023-04-25T09:00:08;19.50;;;3.67;;
44120;SDS011;29783;52.504;13.478;2023-04-25T09:02:38;24.30;;;3.72;;
44120;SDS011;29783;52.504;13.478;2023-04-25T09:05:04;15.38;;;3.42;;
44120;SDS011;29783;52.504;13.478;2023-04-25T09:07:31;19.55;;;3.88;;
44120;SDS011;29783;52.504;13.478;2023-04-25T09:09:58;19.80;;;3.42;;
44120;SDS011;29783;52.504;13.478;2023-04-25T09:12:28;16.65;;;3.65;;
44120;SDS011;29783;52.504;13.478;2023-04-25T09:15:05;18.38;;;2.95;;
44120;SDS011;29783;52.504;13.478;2023-04-25T09:17:36;17.73;;;2.47;;
44120;SDS011;29783;52.504;13.478;2023-04-25T09:20:12;20.92;;;2.65;;
44120;SDS011;29783;52.504;13.478;2023-04-25T09:22:39;15.85;;;3.20;;
44120;SDS011;29783;52.504;13.478;2023-04-25T09:25:11;25.67;;;3.53;;
44120;SDS011;29783;52.504;13.478;2023-04-25T09:27:48;19.85;;;3.28;;
44120;SDS011;29783;52.504;13.478;2023-04-25T09:30:16;27.35;;;3.03;;
44120;SDS011;29783;52.504;13.478;2023-04-25T09:32:43;13.18;;;2.65;;
44120;SDS011;29783;52.504;13.478;2023-04-25T09:35:09;15.77;;;3.20;;
44120;SDS011;29783;52.504;13.478;2023-04-25T09:37:35;13.77;;;2.85;;
44120;SDS011;29783;52.504;13.478;2023-04-25T09:40:03;7.30;;;2.03;;
44120;SDS011;29783;52.504;13.478;2023-04-25T09:42:31;26.17;;;3.45;;
44120;SDS011;29783;52.504;13.478;2023-04-25T09:44:59;20.25;;;3.35;;
44120;SDS011;29783;52.504;13.478;2023-04-25T09:47:27;22.92;;;3.97;;
44120;SDS011;29783;52.504;13.478;2023-04-25T09:49:53;31.08;;;3.75;;
44120;SDS011;29783;52.504;13.478;2023-04-25T09:52:23;18.30;;;3.15;;
44120;SDS011;29783;52.504;13.478;2023-04-25T09:54:50;16.80;;;2.63;;
44120;SDS011;29783;52.504;13.478;2023-04-25T09:57:17;13.55;;;3.85;;
44120;SDS011;29783;52.504;13.478;2023-04-25T09:59:48;10.07;;;1.83;;
44120;SDS011;29783;52.504;13.478;2023-04-25T10:02:15;6.88;;;0.80;;
44120;SDS011;29783;52.504;13.478;2023-04-25T10:04:44;10.25;;;2.63;;
44120;SDS011;29783;52.504;13.478;2023-04-25T10:07:13;14.20;;;2.10;;
44120;SDS011;29783;52.504;13.478;2023-04-25T10:09:40;13.15;;;2.67;;
44120;SDS011;29783;52.504;13.478;2023-04-25T10:12:07;9.50;;;1.88;;
44120;SDS011;29783;52.504;13.478;2023-04-25T10:14:33;9.90;;;2.40;;
44120;SDS011;29783;52.504;13.478;2023-04-25T10:17:00;18.00;;;2.67;;
44120;SDS011;29783;52.504;13.478;2023-04-25T10:19:26;13.57;;;2.88;;
44120;SDS011;29783;52.504;13.478;2023-04-25T10:21:55;14.05;;;2.58;;
44120;SDS011;29783;52.504;13.478;2023-04-25T10:24:29;14.07;;;3.10;;
44120;SDS011;29783;52.504;13.478;2023-04-25T10:26:55;11.55;;;2.20;;
44120;SDS011;29783;52.504;13.478;2023-04-25T10:29:25;13.48;;;2.42;;
44120;SDS011;29783;52.504;13.478;2023-04-25T10:31:51;17.48;;;2.95;;
44120;SDS011;29783;52.504;13.478;2023-04-25T10:34:17;8.15;;;1.65;;
44120;SDS011;29783;52.504;13.478;2023-04-25T10:36:49;14.98;;;1.50;;
44120;SDS011;29783;52.504;13.478;2023-04-25T10:39:24;10.88;;;1.90;;
44120;SDS011;29783;52.504;13.478;2023-04-25T10:41:53;19.33;;;2.63;;
44120;SDS011;29783;52.504;13.478;2023-04-25T10:44:20;5.53;;;1.75;;
44120;SDS011;29783;52.504;13.478;2023-04-25T10:46:45;16.67;;;3.05;;
44120;SDS011;29783;52.504;13.478;2023-04-25T10:49:15;11.00;;;2.63;;
44120;SDS011;29783;52.504;13.478;2023-04-25T10:54:51;15.93;;;2.97;;
44120;SDS011;29783;52.504;13.478;2023-04-25T11:00:15;8.77;;;2.40;;
44120;SDS011;29783;52.504;13.478;2023-04-25T11:02:44;14.00;;;3.22;;
44120;SDS011;29783;52.504;13.478;2023-04-25T11:05:10;10.35;;;2.20;;
44120;SDS011;29783;52.504;13.478;2023-04-25T11:07:59;7.85;;;2.35;;
44120;SDS011;29783;52.504;13.478;2023-04-25T11:10:26;7.22;;;2.13;;
44120;SDS011;29783;52.504;13.478;2023-04-25T11:12:53;20.55;;;2.58;;
44120;SDS011;29783;52.504;13.478;2023-04-25T11:15:18;12.95;;;2.53;;
44120;SDS011;29783;52.504;13.478;2023-04-25T11:17:44;16.95;;;2.10;;
44120;SDS011;29783;52.504;13.478;2023-04-25T11:20:11;15.30;;;3.10;;
44120;SDS011;29783;52.504;13.478;2023-04-25T11:22:39;8.80;;;2.17;;
44120;SDS011;29783;52.504;13.478;2023-04-25T11:25:09;8.40;;;1.60;;
44120;SDS011;29783;52.504;13.478;2023-04-25T11:27:52;13.45;;;2.25;;
44120;SDS011;29783;52.504;13.478;2023-04-25T11:30:18;12.88;;;2.78;;
44120;SDS011;29783;52.504;13.478;2023-04-25T11:32:44;15.80;;;2.30;;
44120;SDS011;29783;52.504;13.478;2023-04-25T11:35:10;10.48;;;2.25;;
44120;SDS011;29783;52.504;13.478;2023-04-25T11:37:38;14.27;;;2.42;;
44120;SDS011;29783;52.504;13.478;2023-04-25T11:40:05;8.13;;;1.42;;
44120;SDS011;29783;52.504;13.478;2023-04-25T11:42:32;5.38;;;1.70;;
44120;SDS011;29783;52.504;13.478;2023-04-25T11:44:58;9.45;;;2.20;;
44120;SDS011;29783;52.504;13.478;2023-04-25T11:47:31;11.30;;;2.55;;
44120;SDS011;29783;52.504;13.478;2023-04-25T11:50:04;14.80;;;2.50;;
44120;SDS011;29783;52.504;13.478;2023-04-25T11:52:38;8.65;;;2.33;;
44120;SDS011;29783;52.504;13.478;2023-04-25T11:55:09;14.95;;;2.38;;
44120;SDS011;29783;52.504;13.478;2023-04-25T11:57:36;12.93;;;1.98;;
44120;SDS011;29783;52.504;13.478;2023-04-25T12:00:07;9.05;;;2.20;;
44120;SDS011;29783;52.504;13.478;2023-04-25T12:02:34;6.60;;;1.73;;
44120;SDS011;29783;52.504;13.478;2023-04-25T12:05:01;11.50;;;2.22;;
44120;SDS011;29783;52.504;13.478;2023-04-25T12:07:31;10.38;;;1.50;;
44120;SDS011;29783;52.504;13.478;2023-04-25T12:09:56;8.07;;;1.75;;
44120;SDS011;29783;52.504;13.478;2023-04-25T12:12:26;7.72;;;2.42;;
44120;SDS011;29783;52.504;13.478;2023-04-25T12:14:52;11.07;;;1.92;;
44120;SDS011;29783;52.504;13.478;2023-04-25T12:17:20;9.43;;;2.05;;
44120;SDS011;29783;52.504;13.478;2023-04-25T12:19:47;9.02;;;1.90;;
44120;SDS011;29783;52.504;13.478;2023-04-25T12:22:23;19.33;;;1.85;;
44120;SDS011;29783;52.504;13.478;2023-04-25T12:24:49;9.73;;;3.00;;
44120;SDS011;29783;52.504;13.478;2023-04-25T12:27:18;7.38;;;1.77;;
44120;SDS011;29783;52.504;13.478;2023-04-25T12:29:50;10.45;;;1.85;;
44120;SDS011;29783;52.504;13.478;2023-04-25T12:32:17;10.75;;;2.13;;
44120;SDS011;29783;52.504;13.478;2023-04-25T12:34:43;15.85;;;2.42;;
44120;SDS011;29783;52.504;13.478;2023-04-25T12:37:09;8.10;;;2.15;;
44120;SDS011;29783;52.504;13.478;2023-04-25T12:39:36;8.32;;;2.20;;
44120;SDS011;29783;52.504;13.478;2023-04-25T12:42:01;7.38;;;1.83;;
44120;SDS011;29783;52.504;13.478;2023-04-25T12:44:28;5.15;;;1.67;;
44120;SDS011;29783;52.504;13.478;2023-04-25T12:46:54;8.00;;;1.85;;
44120;SDS011;29783;52.504;13.478;2023-04-25T12:49:20;5.88;;;1.70;;
44120;SDS011;29783;52.504;13.478;2023-04-25T12:51:45;9.07;;;2.00;;
44120;SDS011;29783;52.504;13.478;2023-04-25T12:54:11;9.48;;;2.67;;
44120;SDS011;29783;52.504;13.478;2023-04-25T12:56:37;12.90;;;2.00;;
44120;SDS011;29783;52.504;13.478;2023-04-25T12:59:03;7.57;;;2.08;;
44120;SDS011;29783;52.504;13.478;2023-04-25T13:01:29;10.02;;;1.88;;
44120;SDS011;29783;52.504;13.478;2023-04-25T13:03:55;9.57;;;1.60;;
44120;SDS011;29783;52.504;13.478;2023-04-25T13:06:21;6.88;;;1.40;;
44120;SDS011;29783;52.504;13.478;2023-04-25T13:08:47;6.35;;;1.90;;
44120;SDS011;29783;52.504;13.478;2023-04-25T13:11:13;10.15;;;2.03;;
44120;SDS011;29783;52.504;13.478;2023-04-25T13:13:40;16.40;;;1.65;;
44120;SDS011;29783;52.504;13.478;2023-04-25T13:16:05;20.90;;;2.17;;
44120;SDS011;29783;52.504;13.478;2023-04-25T13:18:32;9.57;;;1.73;;
44120;SDS011;29783;52.504;13.478;2023-04-25T13:20:58;8.65;;;1.58;;
44120;SDS011;29783;52.504;13.478;2023-04-25T13:23:27;7.78;;;1.40;;
44120;SDS011;29783;52.504;13.478;2023-04-25T13:25:54;6.05;;;1.35;;
44120;SDS011;29783;52.504;13.478;2023-04-25T13:28:21;8.40;;;1.80;;
44120;SDS011;29783;52.504;13.478;2023-04-25T13:30:47;4.40;;;1.40;;
44120;SDS011;29783;52.504;13.478;2023-04-25T13:33:13;6.43;;;1.60;;
44120;SDS011;29783;52.504;13.478;2023-04-25T13:35:39;7.47;;;1.83;;
44120;SDS011;29783;52.504;13.478;2023-04-25T13:38:06;11.18;;;1.52;;
44120;SDS011;29783;52.504;13.478;2023-04-25T13:40:32;5.80;;;2.03;;
44120;SDS011;29783;52.504;13.478;2023-04-25T13:42:57;4.65;;;1.40;;
44120;SDS011;29783;52.504;13.478;2023-04-25T13:45:24;6.30;;;1.67;;
44120;SDS011;29783;52.504;13.478;2023-04-25T13:47:50;8.18;;;1.40;;
44120;SDS011;29783;52.504;13.478;2023-04-25T13:50:15;11.73;;;1.90;;
44120;SDS011;29783;52.504;13.478;2023-04-25T13:52:41;5.90;;;1.65;;
44120;SDS011;29783;52.504;13.478;2023-04-25T13:55:08;8.63;;;2.00;;
44120;SDS011;29783;52.504;13.478;2023-04-25T13:57:34;4.00;;;1.20;;
44120;SDS011;29783;52.504;13.478;2023-04-25T14:00:01;7.85;;;1.10;;
44120;SDS011;29783;52.504;13.478;2023-04-25T14:02:36;13.50;;;1.33;;
44120;SDS011;29783;52.504;13.478;2023-04-25T14:05:06;9.57;;;1.63;;
44120;SDS011;29783;52.504;13.478;2023-04-25T14:07:36;14.52;;;1.70;;
44120;SDS011;29783;52.504;13.478;2023-04-25T14:10:02;6.18;;;1.70;;
44120;SDS011;29783;52.504;13.478;2023-04-25T14:12:29;7.30;;;2.03;;
44120;SDS011;29783;52.504;13.478;2023-04-25T14:14:55;6.28;;;1.63;;
44120;SDS011;29783;52.504;13.478;2023-04-25T14:17:21;7.40;;;1.70;;
44120;SDS011;29783;52.504;13.478;2023-04-25T14:19:46;5.55;;;1.50;;
44120;SDS011;29783;52.504;13.478;2023-04-25T14:22:13;10.90;;;1.90;;
44120;SDS011;29783;52.504;13.478;2023-04-25T14:24:40;3.60;;;1.20;;
44120;SDS011;29783;52.504;13.478;2023-04-25T14:27:06;8.00;;;1.40;;
44120;SDS011;29783;52.504;13.478;2023-04-25T14:29:32;12.30;;;1.48;;
44120;SDS011;29783;52.504;13.478;2023-04-25T14:31:58;6.95;;;1.55;;
44120;SDS011;29783;52.504;13.478;2023-04-25T14:34:24;4.72;;;0.90;;